createdAt,value
2018-06-08T00:00:24.946Z,0
2018-06-08T00:01:26.571Z,0
2018-06-08T00:02:28.205Z,0
2018-06-08T00:03:29.830Z,0
2018-06-08T00:04:31.444Z,0
2018-06-08T00:05:33.066Z,0
2018-06-08T00:06:34.684Z,0
2018-06-08T00:07:36.306Z,0
2018-06-08T00:08:37.930Z,0
2018-06-08T00:09:39.541Z,0
2018-06-08T00:10:41.166Z,0
2018-06-08T00:11:42.784Z,0
2018-06-08T00:12:44.399Z,0
2018-06-08T00:13:46.026Z,0
2018-06-08T00:14:47.640Z,0
2018-06-08T00:15:49.259Z,0
2018-06-08T00:16:50.883Z,0
2018-06-08T00:17:52.498Z,0
2018-06-08T00:18:54.126Z,0
2018-06-08T00:19:55.747Z,0
2018-06-08T00:20:57.362Z,0
2018-06-08T00:21:58.986Z,0
2018-06-08T00:23:00.601Z,0
2018-06-08T00:24:02.221Z,0
2018-06-08T00:25:03.846Z,0
2018-06-08T00:26:05.466Z,0
2018-06-08T00:27:07.080Z,0
2018-06-08T00:28:08.700Z,0
2018-06-08T00:29:11.292Z,0
2018-06-08T00:30:12.907Z,0
2018-06-08T00:31:14.539Z,0
2018-06-08T00:32:16.157Z,0
2018-06-08T00:33:17.773Z,0
2018-06-08T00:34:19.395Z,0
2018-06-08T00:35:21.008Z,0
2018-06-08T00:36:22.630Z,0
2018-06-08T00:37:24.861Z,0
2018-06-08T00:38:26.477Z,0
2018-06-08T00:39:29.727Z,0
2018-06-08T00:40:31.339Z,0
2018-06-08T00:41:32.964Z,0
2018-06-08T00:42:34.581Z,0
2018-06-08T00:43:36.197Z,0
2018-06-08T00:44:37.820Z,0
2018-06-08T00:45:39.435Z,0
2018-06-08T00:46:41.055Z,0
2018-06-08T00:47:42.679Z,0
2018-06-08T00:48:44.293Z,0
2018-06-08T00:49:45.911Z,0
2018-06-08T00:50:47.536Z,0
2018-06-08T00:51:49.157Z,0
2018-06-08T00:52:50.776Z,0
2018-06-08T00:53:52.391Z,0
2018-06-08T00:54:54.013Z,0
2018-06-08T00:55:55.635Z,0
2018-06-08T00:56:57.259Z,0
2018-06-08T00:57:58.880Z,0
2018-06-08T00:59:00.500Z,0
2018-06-08T01:00:02.196Z,0
2018-06-08T01:01:03.812Z,0
2018-06-08T01:02:05.435Z,0
2018-06-08T01:03:07.053Z,0
2018-06-08T01:04:08.669Z,0
2018-06-08T01:05:10.291Z,0
2018-06-08T01:06:11.906Z,0
2018-06-08T01:07:13.524Z,0
2018-06-08T01:08:15.154Z,0
2018-06-08T01:09:16.769Z,0
2018-06-08T01:10:18.390Z,0
2018-06-08T01:11:20.003Z,0
2018-06-08T01:12:21.624Z,0
2018-06-08T01:13:23.240Z,0
2018-06-08T01:14:24.866Z,0
2018-06-08T01:15:26.487Z,0
2018-06-08T01:16:28.101Z,0
2018-06-08T01:17:29.725Z,0
2018-06-08T01:18:31.337Z,0
2018-06-08T01:19:32.959Z,0
2018-06-08T01:20:34.576Z,0
2018-06-08T01:21:36.194Z,0
2018-06-08T01:22:37.834Z,0
2018-06-08T01:23:39.428Z,0
2018-06-08T01:24:41.053Z,0
2018-06-08T01:25:42.672Z,0
2018-06-08T01:26:44.289Z,0
2018-06-08T01:27:45.924Z,0
2018-06-08T01:28:47.552Z,0
2018-06-08T01:29:49.167Z,0
2018-06-08T01:30:50.786Z,0
2018-06-08T01:31:52.400Z,0
2018-06-08T01:32:54.023Z,0
2018-06-08T01:33:55.637Z,0
2018-06-08T01:34:57.261Z,0
2018-06-08T01:35:58.876Z,0
2018-06-08T01:37:00.501Z,0
2018-06-08T01:38:02.113Z,0
2018-06-08T01:39:03.735Z,0
2018-06-08T01:40:05.352Z,0
2018-06-08T01:41:06.972Z,0
2018-06-08T01:42:08.587Z,0
2018-06-08T01:43:10.210Z,0
2018-06-08T01:44:11.830Z,0
2018-06-08T01:45:13.446Z,0
2018-06-08T01:46:15.070Z,0
2018-06-08T01:47:16.682Z,0
2018-06-08T01:48:18.298Z,0
2018-06-08T01:49:19.921Z,0
2018-06-08T01:50:21.539Z,0
2018-06-08T01:51:23.163Z,0
2018-06-08T01:52:24.778Z,0
2018-06-08T01:53:26.414Z,0
2018-06-08T01:54:28.016Z,0
2018-06-08T01:55:29.639Z,0
2018-06-08T01:56:31.252Z,0
2018-06-08T01:57:32.879Z,0
2018-06-08T01:58:34.495Z,0
2018-06-08T01:59:36.116Z,0
2018-06-08T02:00:37.738Z,0
2018-06-08T02:01:39.354Z,0
2018-06-08T02:02:40.977Z,0
2018-06-08T02:03:42.591Z,0
2018-06-08T02:04:44.215Z,0
2018-06-08T02:05:45.832Z,0
2018-06-08T02:06:47.449Z,0
2018-06-08T02:07:49.069Z,0
2018-06-08T02:08:50.689Z,0
2018-06-08T02:09:52.312Z,0
2018-06-08T02:10:53.925Z,0
2018-06-08T02:11:55.552Z,0
2018-06-08T02:12:57.171Z,0
2018-06-08T02:13:58.784Z,0
2018-06-08T02:15:00.404Z,0
2018-06-08T02:16:02.028Z,0
2018-06-08T02:17:03.640Z,0
2018-06-08T02:18:05.269Z,0
2018-06-08T02:19:06.886Z,0
2018-06-08T02:20:08.502Z,0
2018-06-08T02:21:10.123Z,0
2018-06-08T02:22:11.738Z,0
2018-06-08T02:23:13.355Z,0
2018-06-08T02:24:14.972Z,0
2018-06-08T02:25:16.603Z,0
2018-06-08T02:26:18.220Z,0
2018-06-08T02:27:19.840Z,0
2018-06-08T02:28:21.461Z,0
2018-06-08T02:29:23.079Z,0
2018-06-08T02:30:24.699Z,0
2018-06-08T02:31:26.353Z,0
2018-06-08T02:32:27.935Z,0
2018-06-08T02:33:29.561Z,0
2018-06-08T02:34:31.177Z,0
2018-06-08T02:35:32.795Z,0
2018-06-08T02:36:34.419Z,0
2018-06-08T02:37:36.036Z,0
2018-06-08T02:38:37.655Z,0
2018-06-08T02:39:39.276Z,0
2018-06-08T02:40:40.900Z,0
2018-06-08T02:41:42.522Z,0
2018-06-08T02:42:44.141Z,0
2018-06-08T02:43:45.791Z,0
2018-06-08T02:44:47.405Z,4
2018-06-08T02:45:49.022Z,4
2018-06-08T02:46:50.643Z,4
2018-06-08T02:47:52.265Z,0
2018-06-08T02:48:53.886Z,0
2018-06-08T02:49:55.507Z,4
2018-06-08T02:50:57.122Z,4
2018-06-08T02:51:58.742Z,4
2018-06-08T02:53:00.361Z,4
2018-06-08T02:54:01.987Z,4
2018-06-08T02:55:03.600Z,8
2018-06-08T02:56:05.222Z,4
2018-06-08T02:57:06.837Z,8
2018-06-08T02:58:08.458Z,8
2018-06-08T02:59:10.078Z,12
2018-06-08T03:00:11.694Z,12
2018-06-08T03:01:13.319Z,12
2018-06-08T03:02:15.489Z,12
2018-06-08T03:03:17.129Z,16
2018-06-08T03:04:18.749Z,20
2018-06-08T03:05:20.375Z,20
2018-06-08T03:06:21.986Z,20
2018-06-08T03:07:23.605Z,28
2018-06-08T03:08:25.224Z,32
2018-06-08T03:09:26.850Z,32
2018-06-08T03:10:28.472Z,40
2018-06-08T03:11:30.090Z,40
2018-06-08T03:12:31.712Z,44
2018-06-08T03:13:33.335Z,48
2018-06-08T03:14:34.958Z,56
2018-06-08T03:15:36.580Z,60
2018-06-08T03:16:38.205Z,68
2018-06-08T03:17:39.822Z,72
2018-06-08T03:18:41.443Z,80
2018-06-08T03:19:43.058Z,84
2018-06-08T03:20:44.682Z,92
2018-06-08T03:21:46.301Z,100
2018-06-08T03:22:47.924Z,104
2018-06-08T03:23:49.553Z,112
2018-06-08T03:24:51.171Z,120
2018-06-08T03:25:52.798Z,128
2018-06-08T03:26:54.419Z,140
2018-06-08T03:27:56.036Z,148
2018-06-08T03:28:57.662Z,164
2018-06-08T03:29:59.287Z,180
2018-06-08T03:31:00.914Z,196
2018-06-08T03:32:02.537Z,212
2018-06-08T03:33:04.158Z,224
2018-06-08T03:34:05.778Z,240
2018-06-08T03:35:07.400Z,256
2018-06-08T03:36:09.024Z,272
2018-06-08T03:37:10.650Z,284
2018-06-08T03:38:12.270Z,296
2018-06-08T03:39:13.896Z,312
2018-06-08T03:40:15.531Z,332
2018-06-08T03:41:17.134Z,348
2018-06-08T03:42:18.761Z,368
2018-06-08T03:43:20.385Z,388
2018-06-08T03:44:22.012Z,400
2018-06-08T03:45:23.633Z,420
2018-06-08T03:46:25.253Z,436
2018-06-08T03:47:26.879Z,452
2018-06-08T03:48:28.499Z,472
2018-06-08T03:49:30.124Z,500
2018-06-08T03:50:31.776Z,520
2018-06-08T03:51:33.370Z,540
2018-06-08T03:52:34.993Z,560
2018-06-08T03:53:36.620Z,584
2018-06-08T03:54:38.236Z,616
2018-06-08T03:55:39.863Z,640
2018-06-08T03:56:41.484Z,664
2018-06-08T03:57:43.106Z,684
2018-06-08T03:58:44.733Z,700
2018-06-08T03:59:46.364Z,716
2018-06-08T04:00:47.991Z,728
2018-06-08T04:01:49.631Z,732
2018-06-08T04:02:51.248Z,740
2018-06-08T04:03:52.872Z,736
2018-06-08T04:04:54.495Z,744
2018-06-08T04:05:56.118Z,744
2018-06-08T04:06:57.739Z,744
2018-06-08T04:07:59.365Z,744
2018-06-08T04:09:00.988Z,744
2018-06-08T04:10:03.424Z,748
2018-06-08T04:11:05.037Z,756
2018-06-08T04:12:06.663Z,768
2018-06-08T04:13:08.281Z,784
2018-06-08T04:14:09.908Z,800
2018-06-08T04:15:11.538Z,820
2018-06-08T04:16:13.161Z,836
2018-06-08T04:17:14.780Z,856
2018-06-08T04:18:16.402Z,868
2018-06-08T04:19:18.025Z,880
2018-06-08T04:20:19.647Z,888
2018-06-08T04:21:21.267Z,900
2018-06-08T04:22:22.897Z,920
2018-06-08T04:23:24.512Z,944
2018-06-08T04:24:26.136Z,980
2018-06-08T04:25:27.758Z,1020
2018-06-08T04:26:29.386Z,1068
2018-06-08T04:27:31.008Z,1116
2018-06-08T04:28:32.634Z,1156
2018-06-08T04:29:34.266Z,1188
2018-06-08T04:30:35.884Z,1216
2018-06-08T04:31:37.514Z,1232
2018-06-08T04:32:39.138Z,1240
2018-06-08T04:33:40.767Z,1248
2018-06-08T04:34:42.385Z,1256
2018-06-08T04:35:44.012Z,1268
2018-06-08T04:36:45.639Z,1292
2018-06-08T04:37:47.269Z,1344
2018-06-08T04:38:48.894Z,1420
2018-06-08T04:39:50.514Z,1528
2018-06-08T04:40:52.140Z,1640
2018-06-08T04:41:53.771Z,1744
2018-06-08T04:42:55.390Z,1832
2018-06-08T04:43:57.019Z,1904
2018-06-08T04:44:58.644Z,1984
2018-06-08T04:46:00.267Z,2060
2018-06-08T04:47:01.894Z,2132
2018-06-08T04:48:03.519Z,2196
2018-06-08T04:49:05.145Z,2268
2018-06-08T04:50:06.770Z,2332
2018-06-08T04:51:08.397Z,2388
2018-06-08T04:52:10.019Z,2424
2018-06-08T04:53:11.649Z,2416
2018-06-08T04:54:13.275Z,2396
2018-06-08T04:55:14.895Z,2356
2018-06-08T04:56:16.525Z,2312
2018-06-08T04:57:18.152Z,2268
2018-06-08T04:58:19.774Z,2228
2018-06-08T04:59:21.396Z,2176
2018-06-08T05:00:23.024Z,2136
2018-06-08T05:01:24.648Z,2092
2018-06-08T05:02:26.279Z,2060
2018-06-08T05:03:27.916Z,2040
2018-06-08T05:04:29.539Z,2048
2018-06-08T05:05:31.169Z,2048
2018-06-08T05:06:32.787Z,2060
2018-06-08T05:07:34.412Z,2072
2018-06-08T05:08:36.034Z,2092
2018-06-08T05:09:37.677Z,2120
2018-06-08T05:10:39.287Z,2156
2018-06-08T05:11:40.910Z,2204
2018-06-08T05:12:42.541Z,2272
2018-06-08T05:13:44.161Z,2360
2018-06-08T05:14:45.789Z,2436
2018-06-08T05:15:47.428Z,2520
2018-06-08T05:16:49.047Z,2624
2018-06-08T05:17:50.675Z,2728
2018-06-08T05:18:52.298Z,2860
2018-06-08T05:19:53.922Z,2944
2018-06-08T05:20:55.549Z,2776
2018-06-08T05:21:57.172Z,2840
2018-06-08T05:22:58.801Z,2948
2018-06-08T05:24:00.425Z,3000
2018-06-08T05:25:02.056Z,3064
2018-06-08T05:26:03.682Z,3144
2018-06-08T05:27:05.310Z,3204
2018-06-08T05:28:06.928Z,3248
2018-06-08T05:29:08.556Z,3276
2018-06-08T05:30:10.179Z,3308
2018-06-08T05:31:11.802Z,3312
2018-06-08T05:32:13.423Z,3304
2018-06-08T05:33:15.055Z,3256
2018-06-08T05:34:16.687Z,3184
2018-06-08T05:35:18.304Z,3104
2018-06-08T05:36:19.931Z,3048
2018-06-08T05:37:21.624Z,3016
2018-06-08T05:38:23.178Z,3012
2018-06-08T05:39:24.809Z,3028
2018-06-08T05:40:26.435Z,3044
2018-06-08T05:41:28.063Z,3064
2018-06-08T05:42:29.683Z,3056
2018-06-08T05:43:31.311Z,3040
2018-06-08T05:44:33.031Z,3040
2018-06-08T05:45:34.655Z,3032
2018-06-08T05:46:36.282Z,3024
2018-06-08T05:47:37.912Z,3028
2018-06-08T05:48:39.537Z,3040
2018-06-08T05:49:41.161Z,3076
2018-06-08T05:50:42.788Z,3116
2018-06-08T05:51:44.411Z,3180
2018-06-08T05:52:46.039Z,2980
2018-06-08T05:53:47.695Z,3280
2018-06-08T05:54:49.293Z,3656
2018-06-08T05:55:50.925Z,3716
2018-06-08T05:56:52.548Z,3800
2018-06-08T05:57:54.177Z,3864
2018-06-08T05:58:55.808Z,3952
2018-06-08T05:59:57.432Z,4052
2018-06-08T06:00:59.110Z,4168
2018-06-08T06:02:00.741Z,4344
2018-06-08T06:03:02.371Z,4544
2018-06-08T06:04:03.991Z,4740
2018-06-08T06:05:05.613Z,4972
2018-06-08T06:06:07.245Z,5204
2018-06-08T06:07:08.866Z,5448
2018-06-08T06:08:10.499Z,5664
2018-06-08T06:09:12.124Z,5852
2018-06-08T06:10:13.750Z,6000
2018-06-08T06:11:15.370Z,6164
2018-06-08T06:12:16.994Z,6328
2018-06-08T06:13:18.625Z,6472
2018-06-08T06:14:20.258Z,6616
2018-06-08T06:15:21.875Z,6720
2018-06-08T06:16:23.505Z,6880
2018-06-08T06:17:25.128Z,7052
2018-06-08T06:18:26.760Z,7296
2018-06-08T06:19:28.382Z,7720
2018-06-08T06:20:30.015Z,7872
2018-06-08T06:21:31.636Z,7744
2018-06-08T06:22:33.262Z,7912
2018-06-08T06:23:34.891Z,8056
2018-06-08T06:24:36.515Z,8156
2018-06-08T06:25:38.139Z,8072
2018-06-08T06:26:39.769Z,8012
2018-06-08T06:27:41.390Z,8056
2018-06-08T06:28:43.023Z,8100
2018-06-08T06:29:44.649Z,8272
2018-06-08T06:30:46.276Z,8540
2018-06-08T06:31:47.910Z,8792
2018-06-08T06:32:49.530Z,9196
2018-06-08T06:33:51.155Z,8860
2018-06-08T06:34:52.787Z,10124
2018-06-08T06:35:54.413Z,11160
2018-06-08T06:36:56.045Z,10496
2018-06-08T06:37:57.669Z,10492
2018-06-08T06:38:59.305Z,11488
2018-06-08T06:40:00.943Z,12368
2018-06-08T06:41:02.567Z,11216
2018-06-08T06:42:04.199Z,9200
2018-06-08T06:43:05.831Z,8644
2018-06-08T06:44:07.447Z,9092
2018-06-08T06:45:09.079Z,10132
2018-06-08T06:46:10.707Z,11924
2018-06-08T06:47:12.336Z,12580
2018-06-08T06:48:13.969Z,14388
2018-06-08T06:49:15.594Z,15276
2018-06-08T06:50:17.227Z,15356
2018-06-08T06:51:18.858Z,13760
2018-06-08T06:52:20.487Z,13116
2018-06-08T06:53:22.118Z,13248
2018-06-08T06:54:23.748Z,13492
2018-06-08T06:55:25.373Z,13828
2018-06-08T06:56:27.007Z,13908
2018-06-08T06:57:28.636Z,13380
2018-06-08T06:58:30.269Z,11600
2018-06-08T06:59:31.898Z,11108
2018-06-08T07:00:33.527Z,11124
2018-06-08T07:01:35.157Z,11608
2018-06-08T07:02:36.793Z,11204
2018-06-08T07:03:38.408Z,11324
2018-06-08T07:04:40.043Z,11044
2018-06-08T07:05:41.666Z,10872
2018-06-08T07:06:43.295Z,10992
2018-06-08T07:07:44.930Z,11016
2018-06-08T07:08:46.576Z,10964
2018-06-08T07:09:48.179Z,10784
2018-06-08T07:10:49.814Z,10744
2018-06-08T07:11:51.438Z,10144
2018-06-08T07:12:53.062Z,9996
2018-06-08T07:13:54.694Z,9928
2018-06-08T07:14:56.326Z,9948
2018-06-08T07:15:57.956Z,10064
2018-06-08T07:16:59.582Z,10192
2018-06-08T07:18:01.210Z,10408
2018-06-08T07:19:02.841Z,10764
2018-06-08T07:20:04.468Z,11192
2018-06-08T07:21:06.102Z,11880
2018-06-08T07:22:07.735Z,14364
2018-06-08T07:23:09.362Z,14900
2018-06-08T07:24:10.992Z,15892
2018-06-08T07:25:12.622Z,16448
2018-06-08T07:26:14.249Z,18240
2018-06-08T07:27:15.881Z,21056
2018-06-08T07:28:17.558Z,26432
2018-06-08T07:29:19.140Z,27776
2018-06-08T07:30:20.768Z,27712
2018-06-08T07:31:22.403Z,27936
2018-06-08T07:32:24.032Z,28224
2018-06-08T07:33:25.657Z,30112
2018-06-08T07:34:27.293Z,31712
2018-06-08T07:35:28.925Z,33696
2018-06-08T07:36:30.556Z,33568
2018-06-08T07:37:32.184Z,36768
2018-06-08T07:38:33.811Z,32768
2018-06-08T07:39:35.438Z,26400
2018-06-08T07:40:37.073Z,36064
2018-06-08T07:41:38.706Z,16264
2018-06-08T07:42:40.334Z,15388
2018-06-08T07:43:41.974Z,13604
2018-06-08T07:44:43.599Z,27264
2018-06-08T07:45:45.225Z,11772
2018-06-08T07:46:46.902Z,11920
2018-06-08T07:47:48.492Z,14864
2018-06-08T07:48:50.122Z,14752
2018-06-08T07:49:51.750Z,13780
2018-06-08T07:50:53.388Z,11756
2018-06-08T07:51:55.016Z,10656
2018-06-08T07:52:56.644Z,8972
2018-06-08T07:53:58.278Z,7476
2018-06-08T07:54:59.904Z,6516
2018-06-08T07:56:01.582Z,6144
2018-06-08T07:57:03.167Z,5832
2018-06-08T07:58:04.792Z,5460
2018-06-08T07:59:06.417Z,5152
2018-06-08T08:00:08.044Z,4872
2018-06-08T08:01:09.742Z,4784
2018-06-08T08:02:11.301Z,4796
2018-06-08T08:03:12.932Z,4764
2018-06-08T08:04:14.559Z,4728
2018-06-08T08:05:16.185Z,4692
2018-06-08T08:06:17.814Z,4580
2018-06-08T08:07:19.439Z,4392
2018-06-08T08:08:21.070Z,4232
2018-06-08T08:09:22.693Z,4236
2018-06-08T08:10:24.322Z,4536
2018-06-08T08:11:25.946Z,4928
2018-06-08T08:12:27.578Z,5324
2018-06-08T08:13:29.199Z,5604
2018-06-08T08:14:30.825Z,5768
2018-06-08T08:15:32.448Z,5812
2018-06-08T08:16:34.073Z,5800
2018-06-08T08:17:35.703Z,5960
2018-06-08T08:18:37.325Z,6320
2018-06-08T08:19:38.959Z,6732
2018-06-08T08:20:40.578Z,7128
2018-06-08T08:21:42.205Z,7212
2018-06-08T08:22:43.827Z,7188
2018-06-08T08:23:45.458Z,7208
2018-06-08T08:24:47.088Z,7160
2018-06-08T08:25:48.755Z,6952
2018-06-08T08:26:50.950Z,6512
2018-06-08T08:27:52.563Z,5968
2018-06-08T08:28:54.194Z,5432
2018-06-08T08:29:55.814Z,4920
2018-06-08T08:30:57.439Z,4412
2018-06-08T08:31:59.074Z,3916
2018-06-08T08:33:00.690Z,3528
2018-06-08T08:34:02.323Z,3296
2018-06-08T08:35:03.947Z,3168
2018-06-08T08:36:05.576Z,3172
2018-06-08T08:37:07.196Z,3236
2018-06-08T08:38:08.822Z,3328
2018-06-08T08:39:10.451Z,3372
2018-06-08T08:40:12.076Z,3464
2018-06-08T08:41:13.704Z,3624
2018-06-08T08:42:15.322Z,3796
2018-06-08T08:43:16.950Z,4120
2018-06-08T08:44:18.574Z,4416
2018-06-08T08:45:20.203Z,4632
2018-06-08T08:46:21.828Z,4840
2018-06-08T08:47:23.455Z,5108
2018-06-08T08:48:25.085Z,5208
2018-06-08T08:49:26.709Z,5452
2018-06-08T08:50:28.332Z,5548
2018-06-08T08:51:29.993Z,6088
2018-06-08T08:52:31.587Z,6548
2018-06-08T08:53:33.213Z,7056
2018-06-08T08:54:34.838Z,7544
2018-06-08T08:55:36.468Z,8336
2018-06-08T08:56:38.092Z,9148
2018-06-08T08:57:39.715Z,9100
2018-06-08T08:58:41.339Z,8584
2018-06-08T08:59:42.968Z,8448
2018-06-08T09:00:44.590Z,8392
2018-06-08T09:01:46.224Z,8564
2018-06-08T09:02:47.849Z,8264
2018-06-08T09:03:49.471Z,7760
2018-06-08T09:04:51.140Z,6932
2018-06-08T09:05:52.771Z,6136
2018-06-08T09:06:54.390Z,5576
2018-06-08T09:07:56.022Z,5580
2018-06-08T09:08:57.644Z,5736
2018-06-08T09:09:59.272Z,5828
2018-06-08T09:11:00.898Z,5740
2018-06-08T09:12:02.521Z,5500
2018-06-08T09:13:04.149Z,5156
2018-06-08T09:14:05.778Z,4964
2018-06-08T09:15:07.400Z,4848
2018-06-08T09:16:09.029Z,4940
2018-06-08T09:17:10.655Z,5152
2018-06-08T09:18:12.279Z,5256
2018-06-08T09:19:13.906Z,5264
2018-06-08T09:20:15.573Z,5280
2018-06-08T09:21:17.159Z,5272
2018-06-08T09:22:18.782Z,5196
2018-06-08T09:23:20.411Z,5132
2018-06-08T09:24:22.039Z,5088
2018-06-08T09:25:23.659Z,4716
2018-06-08T09:26:25.287Z,4176
2018-06-08T09:27:26.989Z,3940
2018-06-08T09:28:28.534Z,3988
2018-06-08T09:29:30.162Z,4036
2018-06-08T09:30:31.785Z,3984
2018-06-08T09:31:33.414Z,3852
2018-06-08T09:32:35.044Z,3724
2018-06-08T09:33:36.666Z,3628
2018-06-08T09:34:38.293Z,3544
2018-06-08T09:35:39.915Z,3500
2018-06-08T09:36:41.542Z,3476
2018-06-08T09:37:43.166Z,3484
2018-06-08T09:38:44.791Z,3516
2018-06-08T09:39:46.418Z,3540
2018-06-08T09:40:48.041Z,3532
2018-06-08T09:41:49.662Z,3540
2018-06-08T09:42:51.287Z,3556
2018-06-08T09:43:52.912Z,3644
2018-06-08T09:44:54.538Z,3724
2018-06-08T09:45:56.213Z,3808
2018-06-08T09:46:57.800Z,3888
2018-06-08T09:47:59.423Z,4036
2018-06-08T09:49:01.048Z,4200
2018-06-08T09:50:02.672Z,4316
2018-06-08T09:51:04.299Z,4448
2018-06-08T09:52:05.921Z,4588
2018-06-08T09:53:07.551Z,4756
2018-06-08T09:54:09.177Z,4940
2018-06-08T09:55:10.798Z,5068
2018-06-08T09:56:12.430Z,5124
2018-06-08T09:57:14.051Z,5228
2018-06-08T09:58:15.683Z,5348
2018-06-08T09:59:17.305Z,5452
2018-06-08T10:00:18.930Z,5352
2018-06-08T10:01:20.558Z,4952
2018-06-08T10:02:22.180Z,4836
2018-06-08T10:03:23.803Z,5036
2018-06-08T10:04:25.431Z,5448
2018-06-08T10:05:27.053Z,5984
2018-06-08T10:06:28.683Z,6680
2018-06-08T10:07:30.313Z,6968
2018-06-08T10:08:31.925Z,6808
2018-06-08T10:09:33.553Z,6644
2018-06-08T10:10:35.174Z,6456
2018-06-08T10:11:36.809Z,6200
2018-06-08T10:12:38.426Z,5800
2018-06-08T10:13:40.048Z,5356
2018-06-08T10:14:41.675Z,5180
2018-06-08T10:15:43.299Z,5472
2018-06-08T10:16:44.921Z,5936
2018-06-08T10:17:46.549Z,6372
2018-06-08T10:18:48.170Z,6732
2018-06-08T10:19:49.798Z,6872
2018-06-08T10:20:51.419Z,7344
2018-06-08T10:21:53.100Z,7956
2018-06-08T10:22:54.669Z,8632
2018-06-08T10:23:56.301Z,9476
2018-06-08T10:24:57.914Z,10372
2018-06-08T10:25:59.547Z,11100
2018-06-08T10:27:01.168Z,11788
2018-06-08T10:28:02.795Z,11920
2018-06-08T10:29:04.439Z,11648
2018-06-08T10:30:06.048Z,11688
2018-06-08T10:31:07.677Z,12208
2018-06-08T10:32:09.303Z,12432
2018-06-08T10:33:10.926Z,12568
2018-06-08T10:34:12.555Z,12384
2018-06-08T10:35:14.182Z,11724
2018-06-08T10:36:15.808Z,11124
2018-06-08T10:37:17.436Z,10252
2018-06-08T10:38:19.063Z,9572
2018-06-08T10:39:20.684Z,9208
2018-06-08T10:40:22.303Z,9180
2018-06-08T10:41:23.933Z,9356
2018-06-08T10:42:25.554Z,9436
2018-06-08T10:43:27.181Z,9592
2018-06-08T10:44:28.801Z,9960
2018-06-08T10:45:30.429Z,10360
2018-06-08T10:46:32.055Z,10756
2018-06-08T10:47:33.683Z,10928
2018-06-08T10:48:35.311Z,11012
2018-06-08T10:49:36.932Z,10592
2018-06-08T10:50:38.563Z,10416
2018-06-08T10:51:40.184Z,9932
2018-06-08T10:52:41.806Z,9224
2018-06-08T10:53:43.434Z,8596
2018-06-08T10:54:45.062Z,7752
2018-06-08T10:55:46.682Z,7240
2018-06-08T10:56:48.310Z,6516
2018-06-08T10:57:49.933Z,5724
2018-06-08T10:58:51.556Z,5708
2018-06-08T10:59:53.187Z,5368
2018-06-08T11:00:54.807Z,5376
2018-06-08T11:01:56.429Z,4928
2018-06-08T11:02:58.057Z,4508
2018-06-08T11:03:59.687Z,4620
2018-06-08T11:05:01.314Z,4788
2018-06-08T11:06:02.934Z,5408
2018-06-08T11:07:04.558Z,6300
2018-06-08T11:08:06.182Z,6000
2018-06-08T11:09:07.808Z,5288
2018-06-08T11:10:09.433Z,4856
2018-06-08T11:11:11.056Z,4552
2018-06-08T11:12:12.685Z,4596
2018-06-08T11:13:14.308Z,5400
2018-06-08T11:14:15.927Z,6376
2018-06-08T11:15:17.550Z,7528
2018-06-08T11:16:19.178Z,7500
2018-06-08T11:17:20.797Z,6792
2018-06-08T11:18:22.427Z,6068
2018-06-08T11:19:24.049Z,5484
2018-06-08T11:20:25.674Z,5576
2018-06-08T11:21:27.292Z,6020
2018-06-08T11:22:28.918Z,6352
2018-06-08T11:23:30.544Z,6712
2018-06-08T11:24:32.167Z,8048
2018-06-08T11:25:33.797Z,10040
2018-06-08T11:26:35.423Z,11584
2018-06-08T11:27:37.052Z,12068
2018-06-08T11:28:38.677Z,12804
2018-06-08T11:29:40.303Z,12832
2018-06-08T11:30:41.927Z,13312
2018-06-08T11:31:43.551Z,14936
2018-06-08T11:32:45.178Z,16992
2018-06-08T11:33:46.810Z,19136
2018-06-08T11:34:48.433Z,20960
2018-06-08T11:35:50.057Z,22272
2018-06-08T11:36:51.687Z,20992
2018-06-08T11:37:53.319Z,21024
2018-06-08T11:38:54.946Z,20576
2018-06-08T11:39:56.576Z,19776
2018-06-08T11:40:58.199Z,18272
2018-06-08T11:41:59.835Z,17184
2018-06-08T11:43:01.476Z,16704
2018-06-08T11:44:03.085Z,15036
2018-06-08T11:45:04.711Z,12452
2018-06-08T11:46:06.342Z,10908
2018-06-08T11:47:07.971Z,11272
2018-06-08T11:48:09.599Z,12400
2018-06-08T11:49:11.230Z,15660
2018-06-08T11:50:12.859Z,17248
2018-06-08T11:51:14.489Z,17984
2018-06-08T11:52:16.125Z,17728
2018-06-08T11:53:17.800Z,15264
2018-06-08T11:54:19.385Z,15052
2018-06-08T11:55:21.019Z,17344
2018-06-08T11:56:22.646Z,20288
2018-06-08T11:57:24.269Z,23584
2018-06-08T11:58:25.907Z,25376
2018-06-08T11:59:27.533Z,30912
2018-06-08T12:00:29.168Z,27072
2018-06-08T12:01:30.794Z,30944
2018-06-08T12:02:32.430Z,38112
2018-06-08T12:03:34.054Z,24768
2018-06-08T12:04:35.679Z,26688
2018-06-08T12:05:37.313Z,35744
2018-06-08T12:06:38.942Z,41440
2018-06-08T12:07:40.575Z,38560
2018-06-08T12:08:42.211Z,35840
2018-06-08T12:09:43.843Z,33152
2018-06-08T12:10:45.469Z,39072
2018-06-08T12:11:47.109Z,21248
2018-06-08T12:12:48.734Z,20448
2018-06-08T12:13:50.369Z,30016
2018-06-08T12:14:52.005Z,19648
2018-06-08T12:15:53.635Z,21056
2018-06-08T12:16:55.263Z,25696
2018-06-08T12:17:56.898Z,20960
2018-06-08T12:18:58.531Z,21120
2018-06-08T12:20:00.157Z,25312
2018-06-08T12:21:01.796Z,27328
2018-06-08T12:22:03.429Z,26720
2018-06-08T12:23:05.063Z,29088
2018-06-08T12:24:06.737Z,36480
2018-06-08T12:25:08.326Z,33760
2018-06-08T12:26:09.954Z,32352
2018-06-08T12:27:11.588Z,24448
2018-06-08T12:28:13.225Z,18688
2018-06-08T12:29:14.855Z,15912
2018-06-08T12:30:16.490Z,15052
2018-06-08T12:31:18.127Z,15000
2018-06-08T12:32:19.753Z,15136
2018-06-08T12:33:21.391Z,15192
2018-06-08T12:34:23.023Z,15552
2018-06-08T12:35:24.654Z,16016
2018-06-08T12:36:26.287Z,16424
2018-06-08T12:37:27.918Z,17536
2018-06-08T12:38:29.557Z,19712
2018-06-08T12:39:31.192Z,23200
2018-06-08T12:40:32.815Z,26880
2018-06-08T12:41:34.454Z,32512
2018-06-08T12:42:36.083Z,52704
2018-06-08T12:43:37.774Z,56096
2018-06-08T12:44:39.353Z,52416
2018-06-08T12:45:40.984Z,63552
2018-06-08T12:46:42.618Z,59904
2018-06-08T12:47:44.252Z,47648
2018-06-08T12:48:45.882Z,36128
2018-06-08T12:49:47.517Z,46624
2018-06-08T12:50:49.148Z,43904
2018-06-08T12:51:50.782Z,54592
2018-06-08T12:52:52.421Z,56256
2018-06-08T12:53:54.060Z,46560
2018-06-08T12:54:55.691Z,42272
2018-06-08T12:55:57.331Z,45344
2018-06-08T12:56:58.959Z,68800
2018-06-08T12:58:00.592Z,41184
2018-06-08T12:59:02.230Z,33024
2018-06-08T13:00:03.867Z,28672
2018-06-08T13:01:05.504Z,23680
2018-06-08T13:02:07.133Z,21728
2018-06-08T13:03:08.809Z,18080
2018-06-08T13:04:10.408Z,15932
2018-06-08T13:05:12.043Z,15028
2018-06-08T13:06:13.686Z,15208
2018-06-08T13:07:15.317Z,15840
2018-06-08T13:08:16.949Z,17536
2018-06-08T13:09:18.585Z,19904
2018-06-08T13:10:20.214Z,22304
2018-06-08T13:11:21.854Z,28896
2018-06-08T13:12:23.496Z,45024
2018-06-08T13:13:25.126Z,28672
2018-06-08T13:14:26.764Z,22784
2018-06-08T13:15:28.399Z,23424
2018-06-08T13:16:30.035Z,21632
2018-06-08T13:17:31.670Z,23200
2018-06-08T13:18:33.310Z,26624
2018-06-08T13:19:34.951Z,49248
2018-06-08T13:20:36.577Z,45856
2018-06-08T13:21:38.209Z,35744
2018-06-08T13:22:39.838Z,45408
2018-06-08T13:23:41.476Z,41504
2018-06-08T13:24:43.104Z,45280
2018-06-08T13:25:44.747Z,47968
2018-06-08T13:26:46.379Z,35168
2018-06-08T13:27:48.011Z,20256
2018-06-08T13:28:49.651Z,18880
2018-06-08T13:29:51.281Z,20192
2018-06-08T13:30:52.912Z,24512
2018-06-08T13:31:54.547Z,23296
2018-06-08T13:32:56.195Z,27328
2018-06-08T13:33:57.819Z,38912
2018-06-08T13:34:59.454Z,46304
2018-06-08T13:36:01.088Z,46304
2018-06-08T13:37:02.718Z,47840
2018-06-08T13:38:04.358Z,54240
2018-06-08T13:39:05.997Z,37216
2018-06-08T13:40:07.625Z,57504
2018-06-08T13:41:09.262Z,59712
2018-06-08T13:42:10.892Z,62912
2018-06-08T13:43:12.524Z,64960
2018-06-08T13:44:14.156Z,63584
2018-06-08T13:45:15.804Z,50080
2018-06-08T13:46:17.416Z,58176
2018-06-08T13:47:19.050Z,57408
2018-06-08T13:48:20.690Z,60640
2018-06-08T13:49:22.325Z,39520
2018-06-08T13:50:23.961Z,56096
2018-06-08T13:51:25.590Z,44160
2018-06-08T13:52:27.236Z,34848
2018-06-08T13:53:28.859Z,33792